Time;durP1;ratioP1;P1;durP2;ratioP2;P2;SDS_P1;SDS_P2;PMS_P1;PMS_P2;Temp;Humidity;BMP_temperature;BMP_pressure;BME280_temperature;BME280_humidity;BME280_pressure;Samples;Min_cycle;Max_cycle;Signal;HPM_P1;HPM_P2
2024/01/23 00:01:43;;;;;;;4.93;3.08;;;;;;;;;;5022982;28;20565;-79
2024/01/23 00:04:10;;;;;;;7.95;3.63;;;;;;;;;;5025956;28;20033;-79
2024/01/23 00:06:36;;;;;;;8.73;5.28;;;;;;;;;;5029547;28;20597;-79
2024/01/23 00:09:02;;;;;;;12.52;4.20;;;;;;;;;;5023440;28;20033;-79
2024/01/23 00:11:28;;;;;;;9.80;5.13;;;;;;;;;;5016984;28;20029;-79
2024/01/23 00:13:54;;;;;;;7.00;3.65;;;;;;;;;;5023550;28;20075;-78
2024/01/23 00:16:20;;;;;;;8.77;3.47;;;;;;;;;;5024787;28;20033;-79
2024/01/23 00:18:46;;;;;;;6.07;3.75;;;;;;;;;;5023573;28;20550;-79
2024/01/23 00:21:12;;;;;;;5.00;3.45;;;;;;;;;;5031036;28;20061;-79
2024/01/23 00:23:38;;;;;;;11.27;5.82;;;;;;;;;;5030253;28;20068;-79
2024/01/23 00:26:04;;;;;;;8.15;4.38;;;;;;;;;;5027734;28;20041;-79
2024/01/23 00:28:30;;;;;;;8.07;4.60;;;;;;;;;;5020902;28;20079;-80
2024/01/23 00:30:56;;;;;;;6.47;4.25;;;;;;;;;;5031632;28;20336;-79
2024/01/23 00:33:22;;;;;;;5.10;4.38;;;;;;;;;;5031043;28;20034;-79
2024/01/23 00:35:48;;;;;;;6.15;3.55;;;;;;;;;;5029157;28;20044;-79
2024/01/23 00:38:14;;;;;;;8.57;4.63;;;;;;;;;;5024169;28;20042;-79
2024/01/23 00:40:40;;;;;;;6.53;3.75;;;;;;;;;;5032788;28;20112;-79
2024/01/23 00:43:06;;;;;;;5.40;3.58;;;;;;;;;;5022922;28;20083;-79
2024/01/23 00:45:32;;;;;;;7.35;3.58;;;;;;;;;;5019444;28;20034;-79
2024/01/23 00:47:58;;;;;;;4.70;2.72;;;;;;;;;;5018763;28;20038;-79
2024/01/23 00:50:25;;;;;;;5.70;3.13;;;;;;;;;;5021265;28;20412;-80
2024/01/23 00:52:52;;;;;;;12.55;3.08;;;;;;;;;;5032246;28;20563;-79
2024/01/23 00:55:18;;;;;;;8.90;2.78;;;;;;;;;;5029909;28;20029;-80
2024/01/23 00:57:44;;;;;;;7.50;4.10;;;;;;;;;;5021207;28;20434;-79
2024/01/23 01:00:10;;;;;;;8.35;3.90;;;;;;;;;;5023818;28;20029;-79
2024/01/23 01:02:36;;;;;;;3.40;1.90;;;;;;;;;;5026864;28;20056;-79
2024/01/23 01:05:02;;;;;;;9.32;3.17;;;;;;;;;;5023472;28;20034;-79
2024/01/23 01:07:28;;;;;;;5.43;2.40;;;;;;;;;;5021894;28;20061;-80
2024/01/23 01:09:55;;;;;;;3.75;2.30;;;;;;;;;;5029770;28;20041;-79
2024/01/23 01:12:21;;;;;;;5.70;3.42;;;;;;;;;;5032511;28;20034;-79
2024/01/23 01:14:47;;;;;;;4.93;1.83;;;;;;;;;;5029051;28;20387;-79
2024/01/23 01:17:13;;;;;;;4.25;2.45;;;;;;;;;;5026597;28;20045;-79
2024/01/23 01:19:39;;;;;;;5.30;2.75;;;;;;;;;;5031250;28;20425;-79
2024/01/23 01:22:05;;;;;;;7.85;2.70;;;;;;;;;;5029597;28;20136;-79
2024/01/23 01:24:32;;;;;;;4.50;1.85;;;;;;;;;;5011776;28;20559;-79
2024/01/23 01:26:58;;;;;;;6.60;3.45;;;;;;;;;;5031245;28;20053;-79
2024/01/23 01:29:24;;;;;;;1.92;1.67;;;;;;;;;;5032193;28;20025;-79
2024/01/23 01:31:50;;;;;;;6.60;4.30;;;;;;;;;;5030545;28;20029;-79
2024/01/23 01:34:16;;;;;;;6.38;2.95;;;;;;;;;;5020838;28;20382;-79
2024/01/23 01:36:42;;;;;;;5.43;2.63;;;;;;;;;;5027249;28;20034;-79
2024/01/23 01:39:11;;;;;;;3.70;1.38;;;;;;;;;;5020533;28;20029;-79
2024/01/23 01:41:37;;;;;;;4.03;1.70;;;;;;;;;;5030113;28;20029;-80
2024/01/23 01:44:03;;;;;;;4.82;1.67;;;;;;;;;;5012959;28;20037;-79
2024/01/23 01:46:30;;;;;;;4.95;2.42;;;;;;;;;;5027625;28;20494;-79
2024/01/23 01:48:56;;;;;;;1.73;1.55;;;;;;;;;;5031273;28;20128;-79
2024/01/23 01:51:24;;;;;;;3.15;1.92;;;;;;;;;;5030122;28;20100;-79
2024/01/23 01:53:50;;;;;;;5.28;1.38;;;;;;;;;;5030442;28;20033;-79
2024/01/23 01:56:17;;;;;;;4.82;1.92;;;;;;;;;;5028697;28;20021;-79
2024/01/23 01:58:43;;;;;;;4.32;1.58;;;;;;;;;;5029003;28;20043;-79
2024/01/23 02:01:10;;;;;;;2.42;1.40;;;;;;;;;;5030286;28;20029;-80
2024/01/23 02:03:36;;;;;;;2.42;0.80;;;;;;;;;;5024995;28;20487;-79
2024/01/23 02:06:03;;;;;;;2.78;1.75;;;;;;;;;;5026315;28;20595;-80
2024/01/23 02:08:29;;;;;;;3.40;2.38;;;;;;;;;;5030624;28;20037;-79
2024/01/23 02:10:55;;;;;;;4.00;2.72;;;;;;;;;;5029527;28;20030;-79
2024/01/23 02:13:22;;;;;;;4.78;2.40;;;;;;;;;;5031233;28;20072;-79
2024/01/23 02:15:48;;;;;;;12.60;2.70;;;;;;;;;;5018813;28;20040;-79
2024/01/23 02:18:14;;;;;;;11.27;2.70;;;;;;;;;;5019733;28;20052;-79
2024/01/23 02:20:40;;;;;;;8.77;2.70;;;;;;;;;;5026618;28;20108;-80
2024/01/23 02:23:11;;;;;;;3.00;1.77;;;;;;;;;;5026532;28;20038;-79
2024/01/23 02:25:37;;;;;;;6.72;3.38;;;;;;;;;;5011351;28;20460;-79
2024/01/23 02:28:03;;;;;;;5.95;3.20;;;;;;;;;;5030798;28;20071;-79
2024/01/23 02:30:29;;;;;;;5.47;1.58;;;;;;;;;;5030312;28;20087;-80
2024/01/23 02:32:55;;;;;;;8.63;1.67;;;;;;;;;;5023028;28;20041;-79
2024/01/23 02:35:21;;;;;;;4.72;1.98;;;;;;;;;;5012457;28;20744;-79
2024/01/23 02:37:47;;;;;;;7.10;3.22;;;;;;;;;;5024179;28;20041;-79
2024/01/23 02:40:13;;;;;;;6.70;1.90;;;;;;;;;;5030479;28;20039;-79
2024/01/23 02:42:39;;;;;;;6.05;2.88;;;;;;;;;;5026741;28;20045;-79
2024/01/23 02:45:06;;;;;;;4.50;1.95;;;;;;;;;;5011710;28;20029;-80
2024/01/23 02:47:31;;;;;;;4.93;2.85;;;;;;;;;;5022368;28;20047;-79
2024/01/23 02:49:58;;;;;;;4.82;2.42;;;;;;;;;;5030740;28;20029;-79
2024/01/23 02:52:27;;;;;;;4.00;2.58;;;;;;;;;;5028760;28;20073;-79
2024/01/23 02:54:53;;;;;;;4.32;2.05;;;;;;;;;;5030397;28;20737;-79
2024/01/23 02:57:19;;;;;;;6.32;3.53;;;;;;;;;;5023241;28;20121;-79
2024/01/23 02:59:45;;;;;;;5.13;2.70;;;;;;;;;;5029904;28;20038;-79
2024/01/23 03:02:11;;;;;;;3.17;2.63;;;;;;;;;;5028359;28;20734;-78
2024/01/23 03:04:37;;;;;;;2.97;1.48;;;;;;;;;;5020720;28;20030;-79
2024/01/23 03:07:03;;;;;;;3.92;1.42;;;;;;;;;;5019284;28;20030;-79
2024/01/23 03:09:29;;;;;;;6.85;1.95;;;;;;;;;;5029394;28;20029;-79
2024/01/23 03:11:55;;;;;;;4.88;1.52;;;;;;;;;;5026716;28;20413;-79
2024/01/23 03:14:21;;;;;;;2.60;1.42;;;;;;;;;;5027145;28;20071;-79
2024/01/23 03:16:47;;;;;;;7.90;2.28;;;;;;;;;;5026225;28;20033;-79
2024/01/23 03:19:13;;;;;;;5.53;3.55;;;;;;;;;;5025663;28;20057;-79
2024/01/23 03:21:39;;;;;;;6.68;2.78;;;;;;;;;;5019726;28;20040;-79
2024/01/23 03:24:05;;;;;;;4.90;2.53;;;;;;;;;;5013101;28;20134;-79
2024/01/23 03:26:31;;;;;;;4.15;2.17;;;;;;;;;;5021941;28;20120;-80
2024/01/23 03:28:57;;;;;;;3.47;2.55;;;;;;;;;;5011554;28;20519;-79
2024/01/23 03:31:23;;;;;;;3.22;1.27;;;;;;;;;;5021656;28;20030;-79
2024/01/23 03:33:49;;;;;;;3.22;1.45;;;;;;;;;;5027341;28;20483;-79
2024/01/23 03:36:15;;;;;;;1.75;0.95;;;;;;;;;;5017917;28;20073;-79
2024/01/23 03:38:41;;;;;;;6.70;2.67;;;;;;;;;;5019752;28;20475;-80
2024/01/23 03:41:07;;;;;;;4.15;2.85;;;;;;;;;;5017786;28;20034;-79
2024/01/23 03:43:33;;;;;;;8.38;2.90;;;;;;;;;;5025011;28;20742;-79
2024/01/23 03:45:59;;;;;;;10.23;3.42;;;;;;;;;;5019222;28;20034;-79
2024/01/23 03:48:25;;;;;;;4.57;2.17;;;;;;;;;;5023887;28;20026;-79
2024/01/23 03:50:51;;;;;;;4.82;1.73;;;;;;;;;;5027923;28;20033;-80
2024/01/23 03:53:17;;;;;;;3.92;1.77;;;;;;;;;;5018754;28;20053;-79
2024/01/23 03:55:44;;;;;;;2.20;1.60;;;;;;;;;;5022455;28;20030;-80
2024/01/23 03:58:10;;;;;;;4.07;2.20;;;;;;;;;;5019396;28;20069;-80
2024/01/23 04:00:37;;;;;;;3.33;1.83;;;;;;;;;;5027474;28;20399;-79
2024/01/23 04:03:05;;;;;;;2.80;1.67;;;;;;;;;;5017405;28;20034;-79
2024/01/23 04:05:31;;;;;;;8.00;3.65;;;;;;;;;;5024007;28;20029;-79
2024/01/23 04:07:57;;;;;;;8.57;2.58;;;;;;;;;;5030297;28;20025;-79
2024/01/23 04:10:23;;;;;;;3.25;2.22;;;;;;;;;;5026783;28;20047;-79
2024/01/23 04:12:49;;;;;;;4.57;1.45;;;;;;;;;;5024822;28;20071;-79
2024/01/23 04:15:15;;;;;;;5.25;2.92;;;;;;;;;;5027699;28;20459;-79
2024/01/23 04:17:41;;;;;;;7.10;2.45;;;;;;;;;;5029072;28;20045;-80
2024/01/23 04:20:07;;;;;;;6.63;3.80;;;;;;;;;;5028788;28;20025;-80
2024/01/23 04:22:35;;;;;;;7.25;2.75;;;;;;;;;;5026388;28;20116;-80
2024/01/23 04:25:00;;;;;;;4.25;2.60;;;;;;;;;;5027601;28;20025;-80
2024/01/23 04:27:26;;;;;;;4.57;2.80;;;;;;;;;;5015143;28;20042;-80
2024/01/23 04:29:52;;;;;;;2.45;1.73;;;;;;;;;;5017300;28;20022;-80
2024/01/23 04:32:20;;;;;;;6.65;3.35;;;;;;;;;;5027458;28;20088;-80
2024/01/23 04:34:46;;;;;;;1.80;1.33;;;;;;;;;;5017873;28;20029;-79
2024/01/23 04:37:12;;;;;;;6.05;2.38;;;;;;;;;;5027471;28;20075;-79
2024/01/23 04:39:38;;;;;;;5.35;2.70;;;;;;;;;;5024879;28;20418;-79
2024/01/23 04:42:04;;;;;;;2.25;1.55;;;;;;;;;;5027164;28;20067;-79
2024/01/23 04:44:30;;;;;;;2.28;1.75;;;;;;;;;;5028047;28;20100;-80
2024/01/23 04:46:56;;;;;;;6.18;2.45;;;;;;;;;;5028805;28;20120;-79
2024/01/23 04:49:22;;;;;;;4.53;2.08;;;;;;;;;;5028128;28;20682;-80
2024/01/23 04:51:48;;;;;;;4.78;1.98;;;;;;;;;;5024759;28;20049;-80
2024/01/23 04:54:14;;;;;;;3.10;1.17;;;;;;;;;;5020307;28;20022;-80
2024/01/23 04:56:40;;;;;;;2.13;0.98;;;;;;;;;;5015190;28;20375;-79
2024/01/23 04:59:06;;;;;;;21.23;2.38;;;;;;;;;;5026575;28;20447;-80
2024/01/23 05:01:33;;;;;;;2.65;1.17;;;;;;;;;;5025967;28;20033;-79
2024/01/23 05:03:59;;;;;;;3.97;1.35;;;;;;;;;;5033041;28;20103;-79
2024/01/23 05:06:25;;;;;;;5.20;2.00;;;;;;;;;;5030282;28;20034;-80
2024/01/23 05:08:51;;;;;;;4.35;1.77;;;;;;;;;;5032413;28;20029;-79
2024/01/23 05:11:17;;;;;;;8.32;1.85;;;;;;;;;;5031744;28;20025;-79
2024/01/23 05:13:43;;;;;;;0.90;0.77;;;;;;;;;;5025489;28;20104;-79
2024/01/23 05:16:09;;;;;;;4.15;2.33;;;;;;;;;;5030078;28;20546;-79
2024/01/23 05:18:35;;;;;;;2.97;1.88;;;;;;;;;;5019578;28;20050;-79
2024/01/23 05:21:02;;;;;;;6.47;1.80;;;;;;;;;;5027747;28;20517;-80
2024/01/23 05:23:28;;;;;;;3.80;2.35;;;;;;;;;;5026867;28;20029;-79
2024/01/23 05:25:54;;;;;;;2.17;1.05;;;;;;;;;;5028293;28;20033;-79
2024/01/23 05:28:20;;;;;;;3.75;1.85;;;;;;;;;;5019512;28;20460;-80
2024/01/23 05:30:47;;;;;;;2.78;2.10;;;;;;;;;;5023959;28;20108;-79
2024/01/23 05:33:13;;;;;;;5.28;2.40;;;;;;;;;;5024535;28;20095;-79
2024/01/23 05:35:39;;;;;;;3.13;1.10;;;;;;;;;;5028131;28;20037;-80
2024/01/23 05:38:05;;;;;;;2.53;1.10;;;;;;;;;;5032063;28;20037;-80
2024/01/23 05:40:31;;;;;;;6.38;1.80;;;;;;;;;;5029439;28;20463;-79
2024/01/23 05:42:57;;;;;;;3.95;1.98;;;;;;;;;;5026349;28;20041;-80
2024/01/23 05:45:23;;;;;;;6.53;1.85;;;;;;;;;;5021983;28;20129;-79
2024/01/23 05:47:49;;;;;;;3.45;1.40;;;;;;;;;;5028428;28;20029;-79
2024/01/23 05:50:15;;;;;;;8.00;1.45;;;;;;;;;;5025093;28;20831;-79
2024/01/23 05:52:41;;;;;;;4.00;2.03;;;;;;;;;;5024729;28;20472;-80
2024/01/23 05:55:08;;;;;;;4.93;2.13;;;;;;;;;;5013578;28;20491;-80
2024/01/23 05:57:35;;;;;;;4.50;2.15;;;;;;;;;;5029306;28;20035;-79
2024/01/23 06:00:05;;;;;;;6.68;2.30;;;;;;;;;;5023887;28;20029;-79
2024/01/23 06:02:31;;;;;;;9.93;2.20;;;;;;;;;;5030670;28;20563;-79
2024/01/23 06:04:58;;;;;;;4.97;2.80;;;;;;;;;;5018473;28;20025;-79
2024/01/23 06:07:24;;;;;;;5.43;2.25;;;;;;;;;;5027565;28;20030;-79
2024/01/23 06:09:50;;;;;;;3.53;1.65;;;;;;;;;;5029890;28;20029;-79
2024/01/23 06:12:16;;;;;;;4.32;1.85;;;;;;;;;;5030266;28;20037;-80
2024/01/23 06:14:42;;;;;;;13.27;3.00;;;;;;;;;;5029670;28;20033;-79
2024/01/23 06:17:08;;;;;;;5.85;2.50;;;;;;;;;;5030649;28;20037;-78
2024/01/23 06:19:35;;;;;;;3.95;2.30;;;;;;;;;;5015702;28;20072;-79
2024/01/23 06:22:01;;;;;;;2.28;1.60;;;;;;;;;;5024358;28;20037;-77
2024/01/23 06:24:27;;;;;;;2.22;1.45;;;;;;;;;;5015612;28;20139;-79
2024/01/23 06:26:53;;;;;;;3.15;1.63;;;;;;;;;;5026052;28;20072;-79
2024/01/23 06:29:19;;;;;;;5.90;2.25;;;;;;;;;;5025785;28;20033;-80
2024/01/23 06:31:47;;;;;;;4.68;1.55;;;;;;;;;;5022004;28;20041;-78
2024/01/23 06:34:13;;;;;;;21.65;2.15;;;;;;;;;;5026210;28;20017;-77
2024/01/23 06:36:39;;;;;;;0.77;0.75;;;;;;;;;;5026091;28;20135;-76
2024/01/23 06:39:05;;;;;;;3.47;2.05;;;;;;;;;;5022015;28;20064;-78
2024/01/23 06:41:31;;;;;;;3.25;1.23;;;;;;;;;;5026472;28;20053;-79
2024/01/23 06:43:58;;;;;;;5.60;2.05;;;;;;;;;;5020289;28;20040;-79
2024/01/23 06:46:24;;;;;;;3.58;1.88;;;;;;;;;;5026454;28;20029;-79
2024/01/23 06:48:50;;;;;;;2.22;1.70;;;;;;;;;;5020355;28;20033;-79
2024/01/23 06:51:16;;;;;;;3.00;1.85;;;;;;;;;;5021207;28;20068;-79
2024/01/23 06:53:42;;;;;;;7.30;3.38;;;;;;;;;;5021773;28;20045;-79
2024/01/23 06:56:08;;;;;;;6.97;4.07;;;;;;;;;;5020922;28;20533;-79
2024/01/23 06:58:34;;;;;;;3.45;2.30;;;;;;;;;;5028930;28;20474;-79
2024/01/23 07:01:00;;;;;;;3.97;2.38;;;;;;;;;;5026883;28;20105;-79
2024/01/23 07:03:26;;;;;;;5.97;4.43;;;;;;;;;;5023838;28;20071;-79
2024/01/23 07:05:52;;;;;;;14.20;3.70;;;;;;;;;;5029215;28;20058;-79
2024/01/23 07:08:18;;;;;;;3.70;2.05;;;;;;;;;;5026721;28;20100;-79
2024/01/23 07:10:44;;;;;;;5.25;1.50;;;;;;;;;;5028167;28;20045;-79
2024/01/23 07:13:10;;;;;;;5.47;3.70;;;;;;;;;;5019059;28;20479;-79
2024/01/23 07:15:36;;;;;;;8.63;3.90;;;;;;;;;;5028727;28;20026;-79
2024/01/23 07:18:02;;;;;;;3.67;1.83;;;;;;;;;;5029885;28;20056;-79
2024/01/23 07:20:28;;;;;;;24.55;3.22;;;;;;;;;;5028434;28;20735;-79
2024/01/23 07:22:54;;;;;;;8.68;2.88;;;;;;;;;;5025191;28;20042;-79
2024/01/23 07:25:20;;;;;;;2.70;1.88;;;;;;;;;;5026138;28;20386;-79
2024/01/23 07:27:47;;;;;;;5.13;1.83;;;;;;;;;;5022264;28;20052;-80
2024/01/23 07:30:13;;;;;;;7.00;2.83;;;;;;;;;;5028857;28;20048;-80
2024/01/23 07:32:39;;;;;;;5.45;2.15;;;;;;;;;;5030855;28;20046;-80
2024/01/23 07:35:05;;;;;;;4.30;2.10;;;;;;;;;;5022253;28;20026;-79
2024/01/23 07:37:31;;;;;;;4.88;2.13;;;;;;;;;;5029471;28;20045;-79
2024/01/23 07:39:58;;;;;;;2.70;1.52;;;;;;;;;;5029446;28;22310;-79
2024/01/23 07:42:24;;;;;;;3.88;1.75;;;;;;;;;;5026814;28;20043;-79
2024/01/23 07:44:50;;;;;;;3.88;1.80;;;;;;;;;;5026582;28;20483;-79
2024/01/23 07:47:16;;;;;;;5.72;1.75;;;;;;;;;;5028256;28;20072;-79
2024/01/23 07:49:42;;;;;;;4.75;2.38;;;;;;;;;;5028814;28;20036;-79
2024/01/23 07:52:09;;;;;;;4.55;2.28;;;;;;;;;;5028094;28;20076;-79
2024/01/23 07:54:35;;;;;;;9.32;3.17;;;;;;;;;;5018820;28;20026;-79
2024/01/23 07:57:01;;;;;;;3.47;2.15;;;;;;;;;;5028323;28;20038;-79
2024/01/23 07:59:27;;;;;;;4.15;2.85;;;;;;;;;;5014909;28;20026;-79
2024/01/23 08:01:53;;;;;;;3.97;1.77;;;;;;;;;;5026945;28;20041;-79
2024/01/23 08:04:19;;;;;;;2.95;1.85;;;;;;;;;;5022406;28;20685;-78
2024/01/23 08:06:45;;;;;;;7.20;2.20;;;;;;;;;;5018961;28;20052;-79
2024/01/23 08:09:11;;;;;;;6.93;3.17;;;;;;;;;;5023796;28;20067;-79
2024/01/23 08:11:37;;;;;;;5.03;2.58;;;;;;;;;;5019833;28;20033;-79
2024/01/23 08:14:03;;;;;;;7.85;2.97;;;;;;;;;;5019466;28;20052;-79
2024/01/23 08:16:29;;;;;;;2.25;1.42;;;;;;;;;;5019957;28;20109;-80
2024/01/23 08:18:58;;;;;;;4.53;3.40;;;;;;;;;;5027977;28;20479;-79
2024/01/23 08:21:24;;;;;;;3.97;2.17;;;;;;;;;;5029099;28;20041;-79
2024/01/23 08:23:50;;;;;;;8.05;1.83;;;;;;;;;;5023060;28;20034;-79
2024/01/23 08:26:16;;;;;;;4.20;2.40;;;;;;;;;;5020257;28;20033;-79
2024/01/23 08:28:42;;;;;;;3.78;2.45;;;;;;;;;;5021431;28;20026;-79
2024/01/23 08:31:08;;;;;;;13.57;1.48;;;;;;;;;;5018427;28;20407;-79
2024/01/23 08:33:34;;;;;;;3.40;2.05;;;;;;;;;;5020995;28;20033;-80
2024/01/23 08:36:01;;;;;;;1.95;0.88;;;;;;;;;;5021498;28;20471;-80
2024/01/23 08:38:27;;;;;;;2.42;1.95;;;;;;;;;;5029646;28;20037;-79
2024/01/23 08:40:53;;;;;;;2.88;1.48;;;;;;;;;;5022657;28;20040;-80
2024/01/23 08:43:19;;;;;;;3.65;2.28;;;;;;;;;;5019111;28;20034;-79
2024/01/23 08:45:45;;;;;;;3.95;2.25;;;;;;;;;;5030781;28;20037;-79
2024/01/23 08:48:11;;;;;;;7.47;2.95;;;;;;;;;;5031220;28;20040;-79
2024/01/23 08:50:37;;;;;;;7.65;3.28;;;;;;;;;;5014649;28;20080;-79
2024/01/23 08:53:04;;;;;;;8.45;2.70;;;;;;;;;;5019773;28;20053;-79
2024/01/23 08:55:30;;;;;;;11.02;2.83;;;;;;;;;;5022111;28;20026;-79
2024/01/23 08:57:56;;;;;;;3.35;1.70;;;;;;;;;;5026669;28;20042;-79
2024/01/23 09:00:22;;;;;;;3.40;1.55;;;;;;;;;;5031439;28;20108;-79
2024/01/23 09:02:48;;;;;;;2.90;1.92;;;;;;;;;;5019954;28;20065;-80
2024/01/23 09:05:14;;;;;;;2.88;2.03;;;;;;;;;;5018762;28;20817;-79
2024/01/23 09:07:40;;;;;;;4.78;2.08;;;;;;;;;;5020522;28;20434;-79
2024/01/23 09:10:06;;;;;;;2.38;1.25;;;;;;;;;;5013148;28;20419;-79
2024/01/23 09:12:35;;;;;;;2.20;1.50;;;;;;;;;;5028372;28;20387;-79
2024/01/23 09:15:04;;;;;;;3.47;2.00;;;;;;;;;;5031479;28;20100;-79
2024/01/23 09:17:31;;;;;;;4.53;1.65;;;;;;;;;;5025416;28;20053;-79
2024/01/23 09:19:57;;;;;;;2.58;1.65;;;;;;;;;;5027049;28;20079;-79
2024/01/23 09:22:23;;;;;;;4.45;1.58;;;;;;;;;;5030297;28;20037;-79
2024/01/23 09:24:49;;;;;;;8.23;2.35;;;;;;;;;;5026315;28;20076;-79
2024/01/23 09:27:15;;;;;;;3.97;1.80;;;;;;;;;;5027827;28;20478;-79
2024/01/23 09:29:42;;;;;;;5.25;2.83;;;;;;;;;;5021262;28;20075;-79
2024/01/23 09:32:08;;;;;;;2.92;1.58;;;;;;;;;;5023325;28;20037;-79
2024/01/23 09:34:34;;;;;;;7.40;2.25;;;;;;;;;;5030850;28;20029;-79
2024/01/23 09:37:00;;;;;;;2.45;1.45;;;;;;;;;;5022374;28;20354;-79
2024/01/23 09:39:26;;;;;;;3.17;1.48;;;;;;;;;;5022367;28;20479;-79
2024/01/23 09:41:54;;;;;;;1.92;1.48;;;;;;;;;;5030296;28;20773;-79
2024/01/23 09:44:20;;;;;;;0.70;0.45;;;;;;;;;;5022138;28;20040;-80
2024/01/23 09:46:47;;;;;;;1.52;0.68;;;;;;;;;;5028257;28;20032;-79
2024/01/23 09:49:14;;;;;;;5.30;1.38;;;;;;;;;;5031111;28;20036;-79
2024/01/23 09:51:47;;;;;;;1.45;0.65;;;;;;;;;;5023802;28;20097;-79
2024/01/23 09:54:13;;;;;;;8.07;1.58;;;;;;;;;;5031500;28;20029;-80
2024/01/23 09:56:40;;;;;;;2.53;1.25;;;;;;;;;;5030115;28;20037;-79
2024/01/23 09:59:08;;;;;;;5.57;2.30;;;;;;;;;;5030647;28;20037;-79
2024/01/23 10:01:34;;;;;;;3.45;1.70;;;;;;;;;;5029979;28;20695;-80
2024/01/23 10:04:04;;;;;;;1.45;1.00;;;;;;;;;;5023737;28;20559;-80
2024/01/23 10:06:30;;;;;;;5.47;1.20;;;;;;;;;;5015354;28;20475;-80
2024/01/23 10:08:56;;;;;;;10.48;2.10;;;;;;;;;;5025692;28;20038;-80
2024/01/23 10:11:22;;;;;;;4.38;2.50;;;;;;;;;;5012249;28;20380;-80
2024/01/23 10:13:48;;;;;;;2.50;1.23;;;;;;;;;;5028561;28;20034;-80
2024/01/23 10:16:17;;;;;;;2.05;0.93;;;;;;;;;;5027004;28;20033;-80
2024/01/23 10:18:48;;;;;;;6.93;1.90;;;;;;;;;;5030211;28;20072;-80
2024/01/23 10:21:15;;;;;;;2.80;1.63;;;;;;;;;;5024491;28;20029;-80
2024/01/23 10:23:42;;;;;;;0.85;0.50;;;;;;;;;;5028501;28;20467;-80
2024/01/23 10:26:08;;;;;;;5.18;2.03;;;;;;;;;;5027763;28;20067;-80
2024/01/23 10:28:35;;;;;;;1.23;0.90;;;;;;;;;;5028689;28;20045;-80
2024/01/23 10:31:02;;;;;;;0.98;0.50;;;;;;;;;;5022289;28;20021;-80
2024/01/23 10:33:28;;;;;;;1.25;0.57;;;;;;;;;;5027015;28;20040;-80
2024/01/23 10:35:54;;;;;;;2.53;0.90;;;;;;;;;;5021448;28;20372;-80
2024/01/23 10:38:20;;;;;;;2.72;1.00;;;;;;;;;;5021872;28;20034;-80
2024/01/23 10:40:47;;;;;;;0.82;0.43;;;;;;;;;;5010882;28;20067;-79
2024/01/23 10:43:14;;;;;;;2.85;0.90;;;;;;;;;;5022296;28;20038;-80
2024/01/23 10:45:40;;;;;;;3.85;1.23;;;;;;;;;;5024669;28;20021;-80
2024/01/23 10:48:07;;;;;;;0.98;0.17;;;;;;;;;;5026768;28;20112;-80
2024/01/23 10:50:34;;;;;;;3.42;0.90;;;;;;;;;;5011474;28;20030;-80
2024/01/23 10:53:05;;;;;;;4.72;1.35;;;;;;;;;;5027531;28;20057;-80
2024/01/23 10:55:32;;;;;;;1.95;0.88;;;;;;;;;;5028093;28;20044;-80
2024/01/23 10:58:10;;;;;;;2.22;0.90;;;;;;;;;;5028895;28;20046;-80
2024/01/23 11:00:37;;;;;;;5.30;0.95;;;;;;;;;;5025584;28;20045;-80
2024/01/23 11:03:05;;;;;;;1.35;0.82;;;;;;;;;;5024919;28;20038;-80
2024/01/23 11:05:43;;;;;;;2.47;1.08;;;;;;;;;;5020655;28;20021;-81
2024/01/23 11:08:14;;;;;;;5.82;1.80;;;;;;;;;;5029052;28;20065;-80
2024/01/23 11:10:45;;;;;;;2.38;1.13;;;;;;;;;;5016764;28;20061;-80
2024/01/23 11:13:19;;;;;;;2.95;1.92;;;;;;;;;;5019857;28;20044;-80
2024/01/23 11:15:46;;;;;;;10.90;2.05;;;;;;;;;;5019625;28;20033;-80
2024/01/23 11:18:28;;;;;;;3.05;1.73;;;;;;;;;;5030728;28;20064;-80
2024/01/23 11:21:09;;;;;;;3.35;1.38;;;;;;;;;;5022293;28;20036;-80
2024/01/23 11:23:37;;;;;;;4.43;1.38;;;;;;;;;;5028223;28;20049;-80
2024/01/23 11:26:04;;;;;;;3.13;1.33;;;;;;;;;;5024053;28;20025;-80
2024/01/23 11:28:32;;;;;;;1.08;0.40;;;;;;;;;;5026494;28;20045;-80
2024/01/23 11:31:07;;;;;;;3.58;1.35;;;;;;;;;;5026208;28;20076;-80
2024/01/23 11:33:34;;;;;;;3.60;1.17;;;;;;;;;;5024514;28;20117;-80
2024/01/23 11:36:10;;;;;;;3.70;0.85;;;;;;;;;;5009979;28;20061;-81
2024/01/23 11:38:43;;;;;;;1.80;1.13;;;;;;;;;;5028474;28;20092;-80
2024/01/23 11:41:22;;;;;;;3.33;0.88;;;;;;;;;;5025068;28;20121;-80
2024/01/23 11:44:08;;;;;;;2.72;0.45;;;;;;;;;;5026109;28;20520;-80
2024/01/23 11:46:36;;;;;;;0.43;0.20;;;;;;;;;;5027629;28;20041;-80
2024/01/23 11:49:02;;;;;;;0.13;0.08;;;;;;;;;;5020474;28;20030;-81
2024/01/23 11:51:28;;;;;;;0.68;0.30;;;;;;;;;;5028670;28;20079;-80
2024/01/23 11:53:58;;;;;;;1.00;0.40;;;;;;;;;;5025826;28;20033;-81
2024/01/23 11:56:24;;;;;;;3.40;0.63;;;;;;;;;;5026752;28;20029;-80
2024/01/23 11:58:50;;;;;;;0.73;0.32;;;;;;;;;;5027945;28;20030;-80
2024/01/23 12:01:17;;;;;;;0.85;0.43;;;;;;;;;;5018209;28;20033;-80
2024/01/23 12:03:47;;;;;;;0.75;0.40;;;;;;;;;;5026951;28;20430;-80
2024/01/23 12:06:14;;;;;;;0.45;0.20;;;;;;;;;;5029143;28;20026;-81
2024/01/23 12:08:41;;;;;;;5.72;0.45;;;;;;;;;;5027150;28;20463;-81
2024/01/23 12:11:07;;;;;;;0.25;0.13;;;;;;;;;;5025474;28;20101;-81
2024/01/23 12:13:33;;;;;;;1.02;0.57;;;;;;;;;;5025236;28;20082;-81
2024/01/23 12:15:59;;;;;;;1.23;0.55;;;;;;;;;;5030165;28;20124;-81
2024/01/23 12:18:25;;;;;;;4.45;1.08;;;;;;;;;;5029543;28;20044;-81
2024/01/23 12:20:56;;;;;;;1.35;0.35;;;;;;;;;;5028944;28;20029;-81
2024/01/23 12:23:24;;;;;;;0.38;0.38;;;;;;;;;;5027128;28;22090;-81
2024/01/23 12:25:50;;;;;;;0.80;0.30;;;;;;;;;;5033064;28;20060;-80
2024/01/23 12:28:17;;;;;;;3.63;0.65;;;;;;;;;;5026210;28;20058;-81
2024/01/23 12:30:46;;;;;;;1.77;0.68;;;;;;;;;;5028098;28;20029;-81
2024/01/23 12:33:16;;;;;;;2.45;0.35;;;;;;;;;;5022961;28;20037;-81
2024/01/23 12:35:42;;;;;;;2.13;0.85;;;;;;;;;;5025975;28;20030;-81
2024/01/23 12:38:08;;;;;;;1.38;0.60;;;;;;;;;;5027939;28;20048;-81
2024/01/23 12:40:35;;;;;;;1.92;0.80;;;;;;;;;;5030161;28;20045;-81
2024/01/23 12:43:01;;;;;;;1.80;1.00;;;;;;;;;;5028726;28;20033;-81
2024/01/23 12:45:27;;;;;;;5.63;1.48;;;;;;;;;;5026648;28;20041;-81
2024/01/23 12:47:55;;;;;;;6.43;1.42;;;;;;;;;;5032302;28;20483;-81
2024/01/23 12:50:23;;;;;;;1.88;0.80;;;;;;;;;;5033002;28;20065;-81
2024/01/23 12:52:57;;;;;;;6.53;0.52;;;;;;;;;;5031934;28;20140;-81
2024/01/23 12:55:24;;;;;;;1.55;0.85;;;;;;;;;;5022936;28;20041;-80
2024/01/23 12:57:51;;;;;;;0.85;0.30;;;;;;;;;;5028597;28;20034;-81
2024/01/23 13:00:19;;;;;;;3.38;0.55;;;;;;;;;;5020319;28;20133;-81
2024/01/23 13:02:45;;;;;;;8.20;1.08;;;;;;;;;;5023223;28;20119;-81
2024/01/23 13:05:12;;;;;;;1.38;0.82;;;;;;;;;;5031720;28;20092;-81
2024/01/23 13:07:41;;;;;;;1.50;0.40;;;;;;;;;;5030407;28;20193;-81
2024/01/23 13:10:09;;;;;;;1.38;0.57;;;;;;;;;;5026289;28;20419;-81
2024/01/23 13:12:36;;;;;;;0.93;0.30;;;;;;;;;;5028809;28;20683;-81
2024/01/23 13:15:02;;;;;;;1.55;0.70;;;;;;;;;;5027688;28;20037;-81
2024/01/23 13:17:28;;;;;;;2.42;0.77;;;;;;;;;;5029577;28;20078;-81
2024/01/23 13:19:54;;;;;;;2.92;1.02;;;;;;;;;;5017036;28;20065;-81
2024/01/23 13:22:20;;;;;;;0.70;0.40;;;;;;;;;;5020866;28;20380;-81
2024/01/23 13:24:46;;;;;;;0.30;0.20;;;;;;;;;;5012798;28;20029;-81
2024/01/23 13:27:13;;;;;;;6.85;0.60;;;;;;;;;;5025070;28;20033;-81
2024/01/23 13:29:39;;;;;;;4.22;0.77;;;;;;;;;;5024491;28;20557;-81
2024/01/23 13:32:08;;;;;;;0.52;0.30;;;;;;;;;;5028185;28;20057;-81
2024/01/23 13:34:34;;;;;;;1.85;0.88;;;;;;;;;;5029106;28;20041;-81
2024/01/23 13:37:01;;;;;;;16.70;1.10;;;;;;;;;;5025342;28;20021;-81
2024/01/23 13:39:27;;;;;;;3.67;1.27;;;;;;;;;;5032623;28;20031;-81
2024/01/23 13:41:53;;;;;;;1.08;0.55;;;;;;;;;;5029751;28;20040;-81
2024/01/23 13:44:19;;;;;;;0.57;0.45;;;;;;;;;;5029194;28;20116;-81
2024/01/23 13:46:45;;;;;;;1.50;0.55;;;;;;;;;;5026590;28;20029;-81
2024/01/23 13:49:11;;;;;;;2.78;1.25;;;;;;;;;;5029449;28;20064;-81
2024/01/23 13:51:40;;;;;;;0.57;0.47;;;;;;;;;;5030359;28;20053;-81
2024/01/23 13:54:07;;;;;;;2.17;0.50;;;;;;;;;;5028189;28;20037;-82
2024/01/23 13:56:36;;;;;;;1.00;0.77;;;;;;;;;;5020553;28;20068;-81
2024/01/23 13:59:06;;;;;;;6.82;1.38;;;;;;;;;;5030911;28;20029;-81
2024/01/23 14:01:32;;;;;;;1.65;0.80;;;;;;;;;;5023021;28;20706;-81
2024/01/23 14:03:59;;;;;;;0.77;0.38;;;;;;;;;;5024689;28;20041;-81
2024/01/23 14:06:25;;;;;;;0.65;0.43;;;;;;;;;;5029028;28;20032;-81
2024/01/23 14:08:52;;;;;;;1.33;0.77;;;;;;;;;;5029693;28;20132;-81
2024/01/23 14:11:18;;;;;;;0.80;0.20;;;;;;;;;;5030683;28;20021;-81
2024/01/23 14:13:44;;;;;;;11.20;0.47;;;;;;;;;;5027812;28;20491;-81
2024/01/23 14:16:10;;;;;;;1.90;0.82;;;;;;;;;;5022827;28;20056;-82
2024/01/23 14:18:36;;;;;;;0.55;0.25;;;;;;;;;;5026173;28;20049;-81
2024/01/23 14:21:04;;;;;;;1.48;0.73;;;;;;;;;;5029602;28;20112;-81
2024/01/23 14:23:31;;;;;;;0.47;0.32;;;;;;;;;;5022760;28;20043;-81
2024/01/23 14:25:57;;;;;;;0.75;0.50;;;;;;;;;;5020480;28;20025;-81
2024/01/23 14:28:23;;;;;;;0.88;0.52;;;;;;;;;;5026731;28;20155;-81
2024/01/23 14:30:50;;;;;;;3.08;0.80;;;;;;;;;;5020969;28;20027;-81
2024/01/23 14:33:17;;;;;;;0.95;0.57;;;;;;;;;;5018272;28;20046;-81
2024/01/23 14:35:47;;;;;;;1.38;0.60;;;;;;;;;;5018228;28;20100;-81
2024/01/23 14:38:13;;;;;;;2.35;0.60;;;;;;;;;;5024323;28;20038;-81
2024/01/23 14:40:39;;;;;;;2.15;0.88;;;;;;;;;;5025905;28;20120;-81